sensor_id;sensor_type;location;lat;lon;timestamp;temperature;humidity
70820;DHT22;58439;51.046;13.692;2022-11-13T00:00:19;3.20;99.90
70820;DHT22;58439;51.046;13.692;2022-11-13T00:03:05;3.20;99.90
70820;DHT22;58439;51.046;13.692;2022-11-13T00:06:01;3.20;99.90
70820;DHT22;58439;51.046;13.692;2022-11-13T00:08:55;3.20;99.90
70820;DHT22;58439;51.046;13.692;2022-11-13T00:11:41;3.20;99.90
70820;DHT22;58439;51.046;13.692;2022-11-13T00:14:27;3.20;99.90
70820;DHT22;58439;51.046;13.692;2022-11-13T00:17:13;3.20;99.90
70820;DHT22;58439;51.046;13.692;2022-11-13T00:20:00;3.20;99.90
70820;DHT22;58439;51.046;13.692;2022-11-13T00:23:00;3.20;99.90
70820;DHT22;58439;51.046;13.692;2022-11-13T00:26:13;3.10;99.90
70820;DHT22;58439;51.046;13.692;2022-11-13T00:29:09;3.10;99.90
70820;DHT22;58439;51.046;13.692;2022-11-13T00:32:13;3.10;99.90
70820;DHT22;58439;51.046;13.692;2022-11-13T00:35:10;3.00;99.90
70820;DHT22;58439;51.046;13.692;2022-11-13T00:38:08;3.00;99.90
70820;DHT22;58439;51.046;13.692;2022-11-13T00:41:00;2.90;99.90
70820;DHT22;58439;51.046;13.692;2022-11-13T00:43:57;2.90;99.90
70820;DHT22;58439;51.046;13.692;2022-11-13T00:46:43;2.80;99.90
70820;DHT22;58439;51.046;13.692;2022-11-13T00:49:52;2.80;99.90
70820;DHT22;58439;51.046;13.692;2022-11-13T00:53:23;2.80;99.90
70820;DHT22;58439;51.046;13.692;2022-11-13T01:04:05;2.70;99.90
70820;DHT22;58439;51.046;13.692;2022-11-13T01:07:37;2.70;99.90
70820;DHT22;58439;51.046;13.692;2022-11-13T01:10:23;2.80;99.90
70820;DHT22;58439;51.046;13.692;2022-11-13T01:13:09;2.90;99.90
70820;DHT22;58439;51.046;13.692;2022-11-13T01:16:03;3.00;99.90
70820;DHT22;58439;51.046;13.692;2022-11-13T01:19:31;3.00;99.90
70820;DHT22;58439;51.046;13.692;2022-11-13T01:22:17;3.10;99.90
70820;DHT22;58439;51.046;13.692;2022-11-13T01:25:03;3.10;99.90
70820;DHT22;58439;51.046;13.692;2022-11-13T01:27:50;3.10;99.90
70820;DHT22;58439;51.046;13.692;2022-11-13T01:30:37;3.10;99.90
70820;DHT22;58439;51.046;13.692;2022-11-13T01:33:24;3.10;99.90
70820;DHT22;58439;51.046;13.692;2022-11-13T01:36:18;3.10;99.90
70820;DHT22;58439;51.046;13.692;2022-11-13T01:39:05;3.10;99.90
70820;DHT22;58439;51.046;13.692;2022-11-13T01:41:52;3.00;99.90
70820;DHT22;58439;51.046;13.692;2022-11-13T01:48:37;3.00;99.90
70820;DHT22;58439;51.046;13.692;2022-11-13T01:51:32;3.10;99.90
70820;DHT22;58439;51.046;13.692;2022-11-13T01:54:25;3.10;99.90
70820;DHT22;58439;51.046;13.692;2022-11-13T01:57:14;3.00;99.90
70820;DHT22;58439;51.046;13.692;2022-11-13T02:00:06;3.00;99.90
70820;DHT22;58439;51.046;13.692;2022-11-13T02:02:54;3.00;99.90
70820;DHT22;58439;51.046;13.692;2022-11-13T02:05:40;3.10;99.90
70820;DHT22;58439;51.046;13.692;2022-11-13T02:08:26;3.10;99.90
70820;DHT22;58439;51.046;13.692;2022-11-13T02:11:13;3.10;99.90
70820;DHT22;58439;51.046;13.692;2022-11-13T02:13:59;3.20;99.90
70820;DHT22;58439;51.046;13.692;2022-11-13T02:16:51;3.20;99.90
70820;DHT22;58439;51.046;13.692;2022-11-13T02:19:43;3.20;99.90
70820;DHT22;58439;51.046;13.692;2022-11-13T02:26:01;3.20;99.90
70820;DHT22;58439;51.046;13.692;2022-11-13T02:28:48;3.20;99.90
70820;DHT22;58439;51.046;13.692;2022-11-13T02:31:34;3.30;99.90
70820;DHT22;58439;51.046;13.692;2022-11-13T02:34:20;3.40;99.90
70820;DHT22;58439;51.046;13.692;2022-11-13T02:52:33;3.60;99.90
70820;DHT22;58439;51.046;13.692;2022-11-13T02:56:29;3.60;99.90
70820;DHT22;58439;51.046;13.692;2022-11-13T02:59:54;3.60;99.90
70820;DHT22;58439;51.046;13.692;2022-11-13T03:03:11;3.60;99.90
70820;DHT22;58439;51.046;13.692;2022-11-13T03:07:01;3.60;99.90
70820;DHT22;58439;51.046;13.692;2022-11-13T03:10:15;3.60;99.90
70820;DHT22;58439;51.046;13.692;2022-11-13T03:13:00;3.70;99.90
70820;DHT22;58439;51.046;13.692;2022-11-13T03:15:53;3.70;99.90
70820;DHT22;58439;51.046;13.692;2022-11-13T03:18:39;3.70;99.90
70820;DHT22;58439;51.046;13.692;2022-11-13T03:21:59;3.70;99.90
70820;DHT22;58439;51.046;13.692;2022-11-13T03:25:29;3.70;99.90
70820;DHT22;58439;51.046;13.692;2022-11-13T03:28:16;3.60;99.90
70820;DHT22;58439;51.046;13.692;2022-11-13T03:31:03;3.70;99.90
70820;DHT22;58439;51.046;13.692;2022-11-13T03:33:53;3.70;99.90
70820;DHT22;58439;51.046;13.692;2022-11-13T03:36:41;3.60;99.90
70820;DHT22;58439;51.046;13.692;2022-11-13T03:39:27;3.60;99.90
70820;DHT22;58439;51.046;13.692;2022-11-13T03:42:13;3.60;99.90
70820;DHT22;58439;51.046;13.692;2022-11-13T03:45:02;3.60;99.90
70820;DHT22;58439;51.046;13.692;2022-11-13T03:47:49;3.50;99.90
70820;DHT22;58439;51.046;13.692;2022-11-13T03:50:52;3.30;99.90
70820;DHT22;58439;51.046;13.692;2022-11-13T03:53:39;3.20;99.90
70820;DHT22;58439;51.046;13.692;2022-11-13T03:56:27;3.10;99.90
70820;DHT22;58439;51.046;13.692;2022-11-13T03:59:12;3.00;99.90
70820;DHT22;58439;51.046;13.692;2022-11-13T04:02:03;3.00;99.90
70820;DHT22;58439;51.046;13.692;2022-11-13T04:04:50;2.90;99.90
70820;DHT22;58439;51.046;13.692;2022-11-13T04:07:52;2.90;99.90
70820;DHT22;58439;51.046;13.692;2022-11-13T04:10:53;2.80;99.90
70820;DHT22;58439;51.046;13.692;2022-11-13T04:14:05;2.80;99.90
70820;DHT22;58439;51.046;13.692;2022-11-13T04:17:14;2.70;99.90
70820;DHT22;58439;51.046;13.692;2022-11-13T04:20:30;2.70;99.90
70820;DHT22;58439;51.046;13.692;2022-11-13T04:28:53;2.60;99.90
70820;DHT22;58439;51.046;13.692;2022-11-13T04:33:36;2.60;99.90
70820;DHT22;58439;51.046;13.692;2022-11-13T04:37:31;2.50;99.90
70820;DHT22;58439;51.046;13.692;2022-11-13T04:40:17;2.40;99.90
70820;DHT22;58439;51.046;13.692;2022-11-13T04:43:03;2.40;99.90
70820;DHT22;58439;51.046;13.692;2022-11-13T04:45:51;2.30;99.90
70820;DHT22;58439;51.046;13.692;2022-11-13T04:48:44;2.30;99.90
70820;DHT22;58439;51.046;13.692;2022-11-13T04:56:22;2.20;99.90
70820;DHT22;58439;51.046;13.692;2022-11-13T05:05:17;2.20;99.90
70820;DHT22;58439;51.046;13.692;2022-11-13T05:08:11;2.10;99.90
70820;DHT22;58439;51.046;13.692;2022-11-13T05:15:38;2.10;99.90
70820;DHT22;58439;51.046;13.692;2022-11-13T05:18:25;2.10;99.90
70820;DHT22;58439;51.046;13.692;2022-11-13T05:21:11;2.10;99.90
70820;DHT22;58439;51.046;13.692;2022-11-13T05:23:58;2.10;99.90
70820;DHT22;58439;51.046;13.692;2022-11-13T05:26:43;2.10;99.90
70820;DHT22;58439;51.046;13.692;2022-11-13T05:29:30;2.10;99.90
70820;DHT22;58439;51.046;13.692;2022-11-13T05:32:16;2.10;99.90
70820;DHT22;58439;51.046;13.692;2022-11-13T05:35:16;2.10;99.90
70820;DHT22;58439;51.046;13.692;2022-11-13T05:41:45;2.00;99.90
70820;DHT22;58439;51.046;13.692;2022-11-13T05:44:52;2.00;99.90
70820;DHT22;58439;51.046;13.692;2022-11-13T05:48:53;2.00;99.90
70820;DHT22;58439;51.046;13.692;2022-11-13T05:52:32;2.00;99.90
70820;DHT22;58439;51.046;13.692;2022-11-13T05:56:23;1.90;99.90
70820;DHT22;58439;51.046;13.692;2022-11-13T06:03:39;1.90;99.90
70820;DHT22;58439;51.046;13.692;2022-11-13T06:06:42;1.90;99.90
70820;DHT22;58439;51.046;13.692;2022-11-13T06:09:34;1.90;99.90
70820;DHT22;58439;51.046;13.692;2022-11-13T06:13:03;1.90;99.90
70820;DHT22;58439;51.046;13.692;2022-11-13T06:16:36;1.90;99.90
70820;DHT22;58439;51.046;13.692;2022-11-13T06:19:23;1.90;99.90
70820;DHT22;58439;51.046;13.692;2022-11-13T06:22:09;2.00;99.90
70820;DHT22;58439;51.046;13.692;2022-11-13T06:24:55;2.00;99.90
70820;DHT22;58439;51.046;13.692;2022-11-13T06:27:41;2.00;99.90
70820;DHT22;58439;51.046;13.692;2022-11-13T06:30:27;2.00;99.90
70820;DHT22;58439;51.046;13.692;2022-11-13T06:33:27;2.00;99.90
70820;DHT22;58439;51.046;13.692;2022-11-13T06:36:32;2.10;99.90
70820;DHT22;58439;51.046;13.692;2022-11-13T06:39:29;2.10;99.90
70820;DHT22;58439;51.046;13.692;2022-11-13T06:59:00;2.20;99.90
70820;DHT22;58439;51.046;13.692;2022-11-13T07:01:52;2.30;99.90
70820;DHT22;58439;51.046;13.692;2022-11-13T07:04:38;2.30;99.90
70820;DHT22;58439;51.046;13.692;2022-11-13T07:07:25;2.40;99.90
70820;DHT22;58439;51.046;13.692;2022-11-13T07:10:11;2.40;99.90
70820;DHT22;58439;51.046;13.692;2022-11-13T07:13:23;2.40;99.90
70820;DHT22;58439;51.046;13.692;2022-11-13T07:16:14;2.40;99.90
70820;DHT22;58439;51.046;13.692;2022-11-13T07:19:03;2.50;99.90
70820;DHT22;58439;51.046;13.692;2022-11-13T07:22:19;2.60;99.90
70820;DHT22;58439;51.046;13.692;2022-11-13T07:25:18;2.60;99.90
70820;DHT22;58439;51.046;13.692;2022-11-13T07:28:30;2.70;99.90
70820;DHT22;58439;51.046;13.692;2022-11-13T07:31:17;2.80;99.90
70820;DHT22;58439;51.046;13.692;2022-11-13T07:34:03;2.90;99.90
70820;DHT22;58439;51.046;13.692;2022-11-13T07:36:49;2.90;99.90
70820;DHT22;58439;51.046;13.692;2022-11-13T07:40:06;3.00;99.90
70820;DHT22;58439;51.046;13.692;2022-11-13T07:43:01;3.00;99.90
70820;DHT22;58439;51.046;13.692;2022-11-13T07:45:47;3.10;99.90
70820;DHT22;58439;51.046;13.692;2022-11-13T07:48:39;3.30;99.90
70820;DHT22;58439;51.046;13.692;2022-11-13T07:51:25;3.40;99.90
70820;DHT22;58439;51.046;13.692;2022-11-13T07:54:11;3.50;99.90
70820;DHT22;58439;51.046;13.692;2022-11-13T07:56:57;3.60;99.90
70820;DHT22;58439;51.046;13.692;2022-11-13T07:59:52;3.60;99.90
70820;DHT22;58439;51.046;13.692;2022-11-13T08:02:48;3.80;99.90
70820;DHT22;58439;51.046;13.692;2022-11-13T08:05:35;3.80;99.90
70820;DHT22;58439;51.046;13.692;2022-11-13T08:08:30;3.90;99.90
70820;DHT22;58439;51.046;13.692;2022-11-13T08:12:20;4.00;99.90
70820;DHT22;58439;51.046;13.692;2022-11-13T08:15:45;4.10;99.90
70820;DHT22;58439;51.046;13.692;2022-11-13T08:19:13;4.20;99.90
70820;DHT22;58439;51.046;13.692;2022-11-13T08:23:03;4.30;99.90
70820;DHT22;58439;51.046;13.692;2022-11-13T08:25:50;4.40;99.90
70820;DHT22;58439;51.046;13.692;2022-11-13T08:28:41;4.50;99.90
70820;DHT22;58439;51.046;13.692;2022-11-13T08:31:29;4.60;99.90
70820;DHT22;58439;51.046;13.692;2022-11-13T08:34:36;4.70;99.90
70820;DHT22;58439;51.046;13.692;2022-11-13T08:38:08;4.80;99.90
70820;DHT22;58439;51.046;13.692;2022-11-13T08:41:07;4.90;99.90
70820;DHT22;58439;51.046;13.692;2022-11-13T08:44:01;5.00;99.90
70820;DHT22;58439;51.046;13.692;2022-11-13T08:47:03;5.10;99.90
70820;DHT22;58439;51.046;13.692;2022-11-13T08:49:59;5.10;99.90
70820;DHT22;58439;51.046;13.692;2022-11-13T08:52:45;5.10;99.90
70820;DHT22;58439;51.046;13.692;2022-11-13T08:55:47;5.20;99.90
70820;DHT22;58439;51.046;13.692;2022-11-13T08:58:36;5.30;99.90
70820;DHT22;58439;51.046;13.692;2022-11-13T09:01:26;5.40;99.90
70820;DHT22;58439;51.046;13.692;2022-11-13T09:04:30;5.50;99.90
70820;DHT22;58439;51.046;13.692;2022-11-13T09:07:18;5.60;99.90
70820;DHT22;58439;51.046;13.692;2022-11-13T09:10:15;5.70;99.90
70820;DHT22;58439;51.046;13.692;2022-11-13T09:13:06;5.70;99.90
70820;DHT22;58439;51.046;13.692;2022-11-13T09:15:57;5.90;99.80
70820;DHT22;58439;51.046;13.692;2022-11-13T09:18:57;6.00;99.20
70820;DHT22;58439;51.046;13.692;2022-11-13T09:21:50;6.10;99.00
70820;DHT22;58439;51.046;13.692;2022-11-13T09:24:38;6.20;98.60
70820;DHT22;58439;51.046;13.692;2022-11-13T09:27:25;6.30;97.90
70820;DHT22;58439;51.046;13.692;2022-11-13T09:30:11;6.40;97.50
70820;DHT22;58439;51.046;13.692;2022-11-13T09:33:28;6.50;97.00
70820;DHT22;58439;51.046;13.692;2022-11-13T09:36:48;6.50;96.80
70820;DHT22;58439;51.046;13.692;2022-11-13T09:41:08;6.60;96.70
70820;DHT22;58439;51.046;13.692;2022-11-13T09:49:14;6.90;95.50
70820;DHT22;58439;51.046;13.692;2022-11-13T09:52:04;7.00;95.10
70820;DHT22;58439;51.046;13.692;2022-11-13T09:54:57;7.10;94.60
70820;DHT22;58439;51.046;13.692;2022-11-13T10:00:48;7.40;94.30
70820;DHT22;58439;51.046;13.692;2022-11-13T10:04:07;7.50;94.00
70820;DHT22;58439;51.046;13.692;2022-11-13T10:29:30;13.60;69.60
70820;DHT22;58439;51.046;13.692;2022-11-13T10:58:13;15.50;51.80
70820;DHT22;58439;51.046;13.692;2022-11-13T11:01:20;15.80;50.40
70820;DHT22;58439;51.046;13.692;2022-11-13T11:04:23;16.20;50.20
70820;DHT22;58439;51.046;13.692;2022-11-13T11:07:17;16.40;48.00
70820;DHT22;58439;51.046;13.692;2022-11-13T11:10:22;16.50;46.60
70820;DHT22;58439;51.046;13.692;2022-11-13T11:13:20;16.50;46.50
70820;DHT22;58439;51.046;13.692;2022-11-13T11:26:40;16.70;45.50
70820;DHT22;58439;51.046;13.692;2022-11-13T11:29:48;16.90;44.70
70820;DHT22;58439;51.046;13.692;2022-11-13T11:37:21;17.00;44.40
70820;DHT22;58439;51.046;13.692;2022-11-13T11:40:51;16.70;43.40
70820;DHT22;58439;51.046;13.692;2022-11-13T11:45:24;16.60;43.90
70820;DHT22;58439;51.046;13.692;2022-11-13T11:48:20;16.50;44.00
70820;DHT22;58439;51.046;13.692;2022-11-13T11:51:29;16.90;42.90
70820;DHT22;58439;51.046;13.692;2022-11-13T11:57:48;16.70;42.60
70820;DHT22;58439;51.046;13.692;2022-11-13T12:00:48;16.20;42.90
70820;DHT22;58439;51.046;13.692;2022-11-13T12:07:21;16.20;43.30
70820;DHT22;58439;51.046;13.692;2022-11-13T12:13:30;16.30;42.70
70820;DHT22;58439;51.046;13.692;2022-11-13T12:16:34;16.30;42.80
70820;DHT22;58439;51.046;13.692;2022-11-13T12:22:31;16.10;42.90
70820;DHT22;58439;51.046;13.692;2022-11-13T12:25:54;15.90;43.50
70820;DHT22;58439;51.046;13.692;2022-11-13T12:28:58;16.20;43.70
70820;DHT22;58439;51.046;13.692;2022-11-13T12:32:04;16.40;43.30
70820;DHT22;58439;51.046;13.692;2022-11-13T12:35:19;17.00;42.30
70820;DHT22;58439;51.046;13.692;2022-11-13T12:38:31;17.20;41.40
70820;DHT22;58439;51.046;13.692;2022-11-13T12:41:44;17.00;40.90
70820;DHT22;58439;51.046;13.692;2022-11-13T12:48:37;16.40;42.70
70820;DHT22;58439;51.046;13.692;2022-11-13T12:51:37;16.60;42.20
70820;DHT22;58439;51.046;13.692;2022-11-13T12:54:34;16.60;41.60
70820;DHT22;58439;51.046;13.692;2022-11-13T12:57:30;16.50;42.10
70820;DHT22;58439;51.046;13.692;2022-11-13T13:04:27;16.60;41.80
70820;DHT22;58439;51.046;13.692;2022-11-13T13:20:05;16.40;42.00
70820;DHT22;58439;51.046;13.692;2022-11-13T13:57:00;12.50;51.60
70820;DHT22;58439;51.046;13.692;2022-11-13T13:59:48;12.00;57.30
70820;DHT22;58439;51.046;13.692;2022-11-13T14:02:44;11.50;63.20
70820;DHT22;58439;51.046;13.692;2022-11-13T14:05:34;11.10;65.10
70820;DHT22;58439;51.046;13.692;2022-11-13T14:13:45;10.60;69.70
70820;DHT22;58439;51.046;13.692;2022-11-13T14:22:35;10.00;76.60
70820;DHT22;58439;51.046;13.692;2022-11-13T14:25:26;9.80;77.20
70820;DHT22;58439;51.046;13.692;2022-11-13T14:28:19;9.70;79.40
70820;DHT22;58439;51.046;13.692;2022-11-13T14:31:11;9.60;79.70
70820;DHT22;58439;51.046;13.692;2022-11-13T14:34:16;9.60;79.80
70820;DHT22;58439;51.046;13.692;2022-11-13T14:37:30;9.50;81.70
70820;DHT22;58439;51.046;13.692;2022-11-13T14:40:25;9.40;83.30
70820;DHT22;58439;51.046;13.692;2022-11-13T14:53:28;9.30;84.90
70820;DHT22;58439;51.046;13.692;2022-11-13T14:56:17;9.20;85.80
70820;DHT22;58439;51.046;13.692;2022-11-13T14:59:10;9.10;86.50
70820;DHT22;58439;51.046;13.692;2022-11-13T15:02:04;8.90;87.20
70820;DHT22;58439;51.046;13.692;2022-11-13T15:04:52;8.80;88.90
70820;DHT22;58439;51.046;13.692;2022-11-13T15:07:41;8.70;89.70
70820;DHT22;58439;51.046;13.692;2022-11-13T15:10:30;8.70;90.10
70820;DHT22;58439;51.046;13.692;2022-11-13T15:13:17;8.60;90.30
70820;DHT22;58439;51.046;13.692;2022-11-13T15:16:04;8.50;90.60
70820;DHT22;58439;51.046;13.692;2022-11-13T15:19:00;8.40;90.80
70820;DHT22;58439;51.046;13.692;2022-11-13T15:21:52;8.20;91.30
70820;DHT22;58439;51.046;13.692;2022-11-13T15:25:21;8.10;91.50
70820;DHT22;58439;51.046;13.692;2022-11-13T15:28:09;8.00;92.00
70820;DHT22;58439;51.046;13.692;2022-11-13T15:30:57;7.90;92.30
70820;DHT22;58439;51.046;13.692;2022-11-13T15:33:47;7.80;93.10
70820;DHT22;58439;51.046;13.692;2022-11-13T15:36:35;7.70;93.20
70820;DHT22;58439;51.046;13.692;2022-11-13T15:49:15;7.40;94.50
70820;DHT22;58439;51.046;13.692;2022-11-13T15:52:03;7.40;95.10
70820;DHT22;58439;51.046;13.692;2022-11-13T15:54:51;7.30;94.90
70820;DHT22;58439;51.046;13.692;2022-11-13T15:57:37;7.30;95.00
70820;DHT22;58439;51.046;13.692;2022-11-13T16:00:25;7.20;95.40
70820;DHT22;58439;51.046;13.692;2022-11-13T16:03:13;7.20;96.00
70820;DHT22;58439;51.046;13.692;2022-11-13T16:06:00;7.20;96.00
70820;DHT22;58439;51.046;13.692;2022-11-13T16:19:21;7.00;96.90
70820;DHT22;58439;51.046;13.692;2022-11-13T16:22:34;7.00;97.10
70820;DHT22;58439;51.046;13.692;2022-11-13T16:25:58;6.90;97.50
70820;DHT22;58439;51.046;13.692;2022-11-13T16:29:01;6.90;97.70
70820;DHT22;58439;51.046;13.692;2022-11-13T16:32:01;6.90;98.20
70820;DHT22;58439;51.046;13.692;2022-11-13T16:34:57;7.00;98.50
70820;DHT22;58439;51.046;13.692;2022-11-13T16:37:44;7.10;98.30
70820;DHT22;58439;51.046;13.692;2022-11-13T16:40:31;7.10;97.90
70820;DHT22;58439;51.046;13.692;2022-11-13T16:43:17;7.10;98.00
70820;DHT22;58439;51.046;13.692;2022-11-13T16:46:28;7.10;98.40
70820;DHT22;58439;51.046;13.692;2022-11-13T16:49:16;7.10;98.10
70820;DHT22;58439;51.046;13.692;2022-11-13T16:52:04;7.00;98.10
70820;DHT22;58439;51.046;13.692;2022-11-13T16:54:50;6.90;98.80
70820;DHT22;58439;51.046;13.692;2022-11-13T16:57:38;7.00;99.20
70820;DHT22;58439;51.046;13.692;2022-11-13T17:00:24;6.90;99.10
70820;DHT22;58439;51.046;13.692;2022-11-13T17:03:11;6.90;99.00
70820;DHT22;58439;51.046;13.692;2022-11-13T17:05:57;6.90;99.60
70820;DHT22;58439;51.046;13.692;2022-11-13T17:08:43;6.90;99.80
70820;DHT22;58439;51.046;13.692;2022-11-13T17:11:31;6.90;99.90
70820;DHT22;58439;51.046;13.692;2022-11-13T17:14:17;6.90;99.90
70820;DHT22;58439;51.046;13.692;2022-11-13T17:17:05;6.90;99.90
70820;DHT22;58439;51.046;13.692;2022-11-13T17:19:55;6.90;99.90
70820;DHT22;58439;51.046;13.692;2022-11-13T17:22:41;6.80;99.90
70820;DHT22;58439;51.046;13.692;2022-11-13T17:25:33;6.80;99.90
70820;DHT22;58439;51.046;13.692;2022-11-13T17:28:19;6.80;99.90
70820;DHT22;58439;51.046;13.692;2022-11-13T17:31:10;6.80;99.90
70820;DHT22;58439;51.046;13.692;2022-11-13T17:33:59;6.80;99.90
70820;DHT22;58439;51.046;13.692;2022-11-13T17:36:46;6.70;99.90
70820;DHT22;58439;51.046;13.692;2022-11-13T17:39:32;6.60;99.90
70820;DHT22;58439;51.046;13.692;2022-11-13T17:42:18;6.60;99.90
70820;DHT22;58439;51.046;13.692;2022-11-13T17:45:05;6.50;99.90
70820;DHT22;58439;51.046;13.692;2022-11-13T17:47:52;6.40;99.90
70820;DHT22;58439;51.046;13.692;2022-11-13T17:50:38;6.40;99.90
70820;DHT22;58439;51.046;13.692;2022-11-13T17:53:25;6.30;99.90
70820;DHT22;58439;51.046;13.692;2022-11-13T17:56:12;6.20;99.90
70820;DHT22;58439;51.046;13.692;2022-11-13T17:58:59;6.10;99.90
70820;DHT22;58439;51.046;13.692;2022-11-13T18:01:46;6.10;99.90
70820;DHT22;58439;51.046;13.692;2022-11-13T18:04:32;6.00;99.90
70820;DHT22;58439;51.046;13.692;2022-11-13T18:07:21;5.90;99.90
70820;DHT22;58439;51.046;13.692;2022-11-13T18:10:08;5.90;99.90
70820;DHT22;58439;51.046;13.692;2022-11-13T18:12:55;5.90;99.90
70820;DHT22;58439;51.046;13.692;2022-11-13T18:15:42;5.90;99.90
70820;DHT22;58439;51.046;13.692;2022-11-13T18:18:28;5.90;99.90
70820;DHT22;58439;51.046;13.692;2022-11-13T18:21:18;5.80;99.90
70820;DHT22;58439;51.046;13.692;2022-11-13T18:24:16;5.70;99.90
70820;DHT22;58439;51.046;13.692;2022-11-13T18:27:06;5.60;99.90
70820;DHT22;58439;51.046;13.692;2022-11-13T18:29:54;5.60;99.90
70820;DHT22;58439;51.046;13.692;2022-11-13T18:32:40;5.50;99.90
70820;DHT22;58439;51.046;13.692;2022-11-13T18:35:54;5.50;99.90
70820;DHT22;58439;51.046;13.692;2022-11-13T18:38:41;5.50;99.90
70820;DHT22;58439;51.046;13.692;2022-11-13T18:41:28;5.50;99.90
70820;DHT22;58439;51.046;13.692;2022-11-13T18:44:48;5.50;99.90
70820;DHT22;58439;51.046;13.692;2022-11-13T18:48:42;5.60;99.90
70820;DHT22;58439;51.046;13.692;2022-11-13T18:51:31;5.70;99.90
70820;DHT22;58439;51.046;13.692;2022-11-13T18:54:21;5.70;99.90
70820;DHT22;58439;51.046;13.692;2022-11-13T18:57:09;5.80;99.90
70820;DHT22;58439;51.046;13.692;2022-11-13T18:59:59;5.90;99.90
70820;DHT22;58439;51.046;13.692;2022-11-13T19:02:45;6.00;99.90
70820;DHT22;58439;51.046;13.692;2022-11-13T19:05:35;6.00;99.90
70820;DHT22;58439;51.046;13.692;2022-11-13T19:08:21;6.00;99.90
70820;DHT22;58439;51.046;13.692;2022-11-13T19:11:14;5.90;99.90
70820;DHT22;58439;51.046;13.692;2022-11-13T19:14:01;5.90;99.90
70820;DHT22;58439;51.046;13.692;2022-11-13T19:16:47;5.80;99.90
70820;DHT22;58439;51.046;13.692;2022-11-13T19:19:33;5.80;99.90
70820;DHT22;58439;51.046;13.692;2022-11-13T19:22:19;5.70;99.90
70820;DHT22;58439;51.046;13.692;2022-11-13T19:25:06;5.70;99.90
70820;DHT22;58439;51.046;13.692;2022-11-13T19:27:52;5.60;99.90
70820;DHT22;58439;51.046;13.692;2022-11-13T19:30:43;5.50;99.90
70820;DHT22;58439;51.046;13.692;2022-11-13T19:33:30;5.60;99.90
70820;DHT22;58439;51.046;13.692;2022-11-13T19:36:17;5.60;99.90
70820;DHT22;58439;51.046;13.692;2022-11-13T19:39:03;5.60;99.90
70820;DHT22;58439;51.046;13.692;2022-11-13T19:41:50;5.50;99.90
70820;DHT22;58439;51.046;13.692;2022-11-13T19:44:36;5.50;99.90
70820;DHT22;58439;51.046;13.692;2022-11-13T19:47:25;5.40;99.90
70820;DHT22;58439;51.046;13.692;2022-11-13T19:50:11;5.30;99.90
70820;DHT22;58439;51.046;13.692;2022-11-13T19:52:57;5.30;99.90
70820;DHT22;58439;51.046;13.692;2022-11-13T19:55:53;5.40;99.90
70820;DHT22;58439;51.046;13.692;2022-11-13T19:58:44;5.40;99.90
70820;DHT22;58439;51.046;13.692;2022-11-13T20:01:31;5.40;99.90
70820;DHT22;58439;51.046;13.692;2022-11-13T20:04:17;5.50;99.90
70820;DHT22;58439;51.046;13.692;2022-11-13T20:07:03;5.50;99.90
70820;DHT22;58439;51.046;13.692;2022-11-13T20:09:51;5.60;99.90
70820;DHT22;58439;51.046;13.692;2022-11-13T20:12:37;5.50;99.90
70820;DHT22;58439;51.046;13.692;2022-11-13T20:15:24;5.50;99.90
70820;DHT22;58439;51.046;13.692;2022-11-13T20:18:10;5.40;99.90
70820;DHT22;58439;51.046;13.692;2022-11-13T20:21:21;5.30;99.90
70820;DHT22;58439;51.046;13.692;2022-11-13T20:24:35;5.40;99.90
70820;DHT22;58439;51.046;13.692;2022-11-13T20:27:21;5.40;99.90
70820;DHT22;58439;51.046;13.692;2022-11-13T20:30:08;5.50;99.90
70820;DHT22;58439;51.046;13.692;2022-11-13T20:32:55;5.70;99.90
70820;DHT22;58439;51.046;13.692;2022-11-13T20:35:41;5.80;99.90
70820;DHT22;58439;51.046;13.692;2022-11-13T20:38:28;6.00;99.90
70820;DHT22;58439;51.046;13.692;2022-11-13T20:41:15;6.20;99.90
70820;DHT22;58439;51.046;13.692;2022-11-13T20:44:07;6.30;99.90
70820;DHT22;58439;51.046;13.692;2022-11-13T20:46:53;6.50;99.90
70820;DHT22;58439;51.046;13.692;2022-11-13T20:49:40;6.70;99.90
70820;DHT22;58439;51.046;13.692;2022-11-13T20:52:26;6.80;99.90
70820;DHT22;58439;51.046;13.692;2022-11-13T20:55:12;6.90;99.90
70820;DHT22;58439;51.046;13.692;2022-11-13T20:57:59;7.00;99.90
70820;DHT22;58439;51.046;13.692;2022-11-13T21:00:45;7.00;99.90
70820;DHT22;58439;51.046;13.692;2022-11-13T21:03:32;7.10;99.90
70820;DHT22;58439;51.046;13.692;2022-11-13T21:06:24;7.10;99.90
70820;DHT22;58439;51.046;13.692;2022-11-13T21:09:10;7.20;99.90
70820;DHT22;58439;51.046;13.692;2022-11-13T21:11:57;7.10;99.90
70820;DHT22;58439;51.046;13.692;2022-11-13T21:14:42;7.10;99.90
70820;DHT22;58439;51.046;13.692;2022-11-13T21:17:29;7.00;99.90
70820;DHT22;58439;51.046;13.692;2022-11-13T21:20:15;6.90;99.90
70820;DHT22;58439;51.046;13.692;2022-11-13T21:23:01;6.80;99.90
70820;DHT22;58439;51.046;13.692;2022-11-13T21:25:57;6.80;99.90
70820;DHT22;58439;51.046;13.692;2022-11-13T21:28:47;6.90;99.90
70820;DHT22;58439;51.046;13.692;2022-11-13T21:31:32;6.90;99.90
70820;DHT22;58439;51.046;13.692;2022-11-13T21:34:19;6.90;99.90
70820;DHT22;58439;51.046;13.692;2022-11-13T21:37:05;7.00;99.90
70820;DHT22;58439;51.046;13.692;2022-11-13T21:39:54;7.10;99.90
70820;DHT22;58439;51.046;13.692;2022-11-13T21:42:40;7.10;99.90
70820;DHT22;58439;51.046;13.692;2022-11-13T21:45:26;7.10;99.90
70820;DHT22;58439;51.046;13.692;2022-11-13T21:48:12;7.20;99.90
70820;DHT22;58439;51.046;13.692;2022-11-13T21:50:57;7.20;99.90
70820;DHT22;58439;51.046;13.692;2022-11-13T21:53:44;7.20;99.90
70820;DHT22;58439;51.046;13.692;2022-11-13T21:56:31;7.30;99.90
70820;DHT22;58439;51.046;13.692;2022-11-13T21:59:18;7.40;99.90
70820;DHT22;58439;51.046;13.692;2022-11-13T22:02:04;7.40;99.90
70820;DHT22;58439;51.046;13.692;2022-11-13T22:04:51;7.40;99.90
70820;DHT22;58439;51.046;13.692;2022-11-13T22:07:37;7.50;99.90
70820;DHT22;58439;51.046;13.692;2022-11-13T22:10:22;7.40;99.90
70820;DHT22;58439;51.046;13.692;2022-11-13T22:13:08;7.40;99.90
70820;DHT22;58439;51.046;13.692;2022-11-13T22:15:54;7.50;99.90
70820;DHT22;58439;51.046;13.692;2022-11-13T22:18:40;7.50;99.90
70820;DHT22;58439;51.046;13.692;2022-11-13T22:21:27;7.40;99.90
70820;DHT22;58439;51.046;13.692;2022-11-13T22:24:14;7.40;99.90
70820;DHT22;58439;51.046;13.692;2022-11-13T22:27:00;7.40;99.90
70820;DHT22;58439;51.046;13.692;2022-11-13T22:29:46;7.30;99.90
70820;DHT22;58439;51.046;13.692;2022-11-13T22:32:33;7.30;99.90
70820;DHT22;58439;51.046;13.692;2022-11-13T22:35:19;7.20;99.90
70820;DHT22;58439;51.046;13.692;2022-11-13T22:38:05;7.10;99.90
70820;DHT22;58439;51.046;13.692;2022-11-13T22:40:51;7.00;99.90
70820;DHT22;58439;51.046;13.692;2022-11-13T22:43:39;7.00;99.90